Time;durP1;ratioP1;P1;durP2;ratioP2;P2;SDS_P1;SDS_P2;PMS_P1;PMS_P2;Temp;Humidity;BMP_temperature;BMP_pressure;BME280_temperature;BME280_humidity;BME280_pressure;Samples;Min_cycle;Max_cycle;Signal;HPM_P1;HPM_P2
2021/06/30 00:02:03;;;;;;;9.77;6.95;;;;;;;;;;4421251;32;20221;-73
2021/06/30 00:04:28;;;;;;;13.05;7.28;;;;;;;;;;4423256;32;20308;-73
2021/06/30 00:06:53;;;;;;;11.12;7.70;;;;;;;;;;4421586;32;20172;-74
2021/06/30 00:09:18;;;;;;;13.68;7.90;;;;;;;;;;4407406;32;20188;-73
2021/06/30 00:11:44;;;;;;;11.10;7.78;;;;;;;;;;4421399;32;20146;-73
2021/06/30 00:14:09;;;;;;;11.15;8.00;;;;;;;;;;4422325;32;20129;-72
2021/06/30 00:16:35;;;;;;;12.37;8.13;;;;;;;;;;4423167;32;20508;-73
2021/06/30 00:19:00;;;;;;;11.23;7.75;;;;;;;;;;4408846;32;20605;-73
2021/06/30 00:21:26;;;;;;;11.77;8.50;;;;;;;;;;4432719;32;20194;-73
2021/06/30 00:23:51;;;;;;;11.85;7.95;;;;;;;;;;4436143;32;20122;-73
2021/06/30 00:26:17;;;;;;;11.57;8.20;;;;;;;;;;4436329;32;20165;-73
2021/06/30 00:28:42;;;;;;;13.38;8.30;;;;;;;;;;4435994;32;20336;-72
2021/06/30 00:31:07;;;;;;;11.15;7.90;;;;;;;;;;4430210;32;20549;-72
2021/06/30 00:33:32;;;;;;;13.70;8.40;;;;;;;;;;4422044;32;20246;-73
2021/06/30 00:35:57;;;;;;;12.05;9.02;;;;;;;;;;4420698;32;20258;-73
2021/06/30 00:38:23;;;;;;;11.40;8.13;;;;;;;;;;4406492;32;20210;-72
2021/06/30 00:40:48;;;;;;;14.38;8.95;;;;;;;;;;4408175;32;20624;-73
2021/06/30 00:43:13;;;;;;;11.80;8.32;;;;;;;;;;4421809;32;20126;-73
2021/06/30 00:45:38;;;;;;;12.13;8.50;;;;;;;;;;4420956;32;20127;-73
2021/06/30 00:48:04;;;;;;;12.05;8.45;;;;;;;;;;4406339;32;20253;-72
2021/06/30 00:50:29;;;;;;;13.80;8.38;;;;;;;;;;4421736;32;20130;-72
2021/06/30 00:52:54;;;;;;;14.07;8.43;;;;;;;;;;4420004;32;20134;-72
2021/06/30 00:55:19;;;;;;;14.00;8.80;;;;;;;;;;4420360;32;20230;-72
2021/06/30 00:57:45;;;;;;;13.43;8.35;;;;;;;;;;4406341;32;20598;-73
2021/06/30 01:00:10;;;;;;;11.30;7.78;;;;;;;;;;4420088;32;20126;-73
2021/06/30 01:02:35;;;;;;;12.00;8.15;;;;;;;;;;4422381;32;20157;-73
2021/06/30 01:05:00;;;;;;;10.75;8.18;;;;;;;;;;4421202;32;20130;-73
2021/06/30 01:07:26;;;;;;;11.85;7.82;;;;;;;;;;4420535;32;20508;-73
2021/06/30 01:09:51;;;;;;;12.02;8.50;;;;;;;;;;4421206;32;20241;-72
2021/06/30 01:12:16;;;;;;;11.88;7.57;;;;;;;;;;4411789;32;20162;-72
2021/06/30 01:14:41;;;;;;;13.43;8.05;;;;;;;;;;4425221;32;20145;-73
2021/06/30 01:17:07;;;;;;;10.65;7.75;;;;;;;;;;4420770;32;20601;-72
2021/06/30 01:19:34;;;;;;;12.15;8.23;;;;;;;;;;4442258;32;20153;-73
2021/06/30 01:22:00;;;;;;;10.27;7.68;;;;;;;;;;4442007;32;20191;-73
2021/06/30 01:24:25;;;;;;;8.82;7.05;;;;;;;;;;4441950;32;20126;-72
2021/06/30 01:26:50;;;;;;;9.55;6.90;;;;;;;;;;4442127;32;20152;-73
2021/06/30 01:29:16;;;;;;;10.90;6.37;;;;;;;;;;4441287;32;20122;-73
2021/06/30 01:31:41;;;;;;;7.72;6.18;;;;;;;;;;4442561;32;20133;-72
2021/06/30 01:34:06;;;;;;;7.37;6.28;;;;;;;;;;4441152;32;20607;-74
2021/06/30 01:36:45;;;;;;;9.80;6.25;;;;;;;;;;4442036;32;20167;-73
2021/06/30 01:39:10;;;;;;;9.80;6.95;;;;;;;;;;4427776;32;20259;-72
2021/06/30 01:41:35;;;;;;;8.57;6.07;;;;;;;;;;4442457;32;20156;-72
2021/06/30 01:44:00;;;;;;;10.10;7.10;;;;;;;;;;4440356;32;20142;-72
2021/06/30 01:46:25;;;;;;;12.00;6.75;;;;;;;;;;4441887;32;20220;-72
2021/06/30 01:48:51;;;;;;;10.35;6.62;;;;;;;;;;4440304;32;20164;-72
2021/06/30 01:51:16;;;;;;;11.60;7.50;;;;;;;;;;4440517;32;20220;-73
2021/06/30 01:53:41;;;;;;;13.18;7.07;;;;;;;;;;4440265;32;20202;-73
2021/06/30 01:56:06;;;;;;;10.20;7.03;;;;;;;;;;4426151;32;20187;-73
2021/06/30 01:58:31;;;;;;;9.40;6.53;;;;;;;;;;4440178;32;20229;-73
2021/06/30 02:00:56;;;;;;;10.30;6.60;;;;;;;;;;4441210;32;20134;-74
2021/06/30 02:03:22;;;;;;;12.20;7.07;;;;;;;;;;4440986;32;20535;-73
2021/06/30 02:05:47;;;;;;;11.80;6.53;;;;;;;;;;4425614;32;20644;-73
2021/06/30 02:08:13;;;;;;;10.70;7.57;;;;;;;;;;4425581;32;20138;-74
2021/06/30 02:10:38;;;;;;;9.85;6.85;;;;;;;;;;4411777;32;20166;-72
2021/06/30 02:13:04;;;;;;;10.85;8.23;;;;;;;;;;4425052;32;20565;-73
2021/06/30 02:15:30;;;;;;;11.55;8.25;;;;;;;;;;4410822;32;20455;-73
2021/06/30 02:17:56;;;;;;;10.20;7.70;;;;;;;;;;4410720;32;20222;-73
2021/06/30 02:20:22;;;;;;;11.82;7.87;;;;;;;;;;4425388;32;20127;-73
2021/06/30 02:22:48;;;;;;;11.30;7.55;;;;;;;;;;4407930;32;20196;-74
2021/06/30 02:25:16;;;;;;;10.45;7.55;;;;;;;;;;4422843;32;20553;-73
2021/06/30 02:27:41;;;;;;;10.25;7.78;;;;;;;;;;4423476;32;20160;-73
2021/06/30 02:30:11;;;;;;;13.15;9.00;;;;;;;;;;4423987;32;20142;-73
2021/06/30 02:32:37;;;;;;;11.90;8.27;;;;;;;;;;4408234;32;20184;-73
2021/06/30 02:35:03;;;;;;;12.70;8.38;;;;;;;;;;4423099;32;20204;-73
2021/06/30 02:37:28;;;;;;;13.50;8.57;;;;;;;;;;4408151;32;20193;-72
2021/06/30 02:39:54;;;;;;;12.23;8.10;;;;;;;;;;4424148;32;20126;-73
2021/06/30 02:42:19;;;;;;;13.20;8.00;;;;;;;;;;4422735;32;20126;-72
2021/06/30 02:44:44;;;;;;;13.20;9.05;;;;;;;;;;4422402;32;20161;-72
2021/06/30 02:47:09;;;;;;;11.43;7.87;;;;;;;;;;4422059;32;20538;-72
2021/06/30 02:49:34;;;;;;;10.93;7.85;;;;;;;;;;4421837;32;20127;-73
2021/06/30 02:52:00;;;;;;;12.98;8.63;;;;;;;;;;4421852;32;20416;-73
2021/06/30 02:54:25;;;;;;;14.23;8.10;;;;;;;;;;4422914;32;20126;-73
2021/06/30 02:56:50;;;;;;;12.60;6.60;;;;;;;;;;4422578;32;20149;-72
2021/06/30 02:59:15;;;;;;;12.30;7.12;;;;;;;;;;4408249;32;20158;-73
2021/06/30 03:01:40;;;;;;;11.23;6.70;;;;;;;;;;4422763;32;20225;-73
2021/06/30 03:04:05;;;;;;;10.90;6.72;;;;;;;;;;4422955;32;20589;-72
2021/06/30 03:06:30;;;;;;;7.55;5.75;;;;;;;;;;4423582;32;20214;-72
2021/06/30 03:08:56;;;;;;;8.20;5.87;;;;;;;;;;4422030;32;20156;-72
2021/06/30 03:11:21;;;;;;;7.90;5.70;;;;;;;;;;4422117;32;20242;-72
2021/06/30 03:13:46;;;;;;;8.43;6.25;;;;;;;;;;4422968;32;20217;-72
2021/06/30 03:16:13;;;;;;;10.63;6.82;;;;;;;;;;4424353;32;20184;-72
2021/06/30 03:18:38;;;;;;;9.40;7.20;;;;;;;;;;4423223;32;20333;-72
2021/06/30 03:21:03;;;;;;;10.55;6.93;;;;;;;;;;4423574;32;20443;-72
2021/06/30 03:23:28;;;;;;;11.60;7.27;;;;;;;;;;4408765;32;20162;-72
2021/06/30 03:25:53;;;;;;;11.30;7.95;;;;;;;;;;4407534;32;20582;-72
2021/06/30 03:28:18;;;;;;;9.60;7.00;;;;;;;;;;4422969;32;20141;-72
2021/06/30 03:30:44;;;;;;;13.10;8.10;;;;;;;;;;4424257;32;20241;-73
2021/06/30 03:33:09;;;;;;;13.23;9.23;;;;;;;;;;4421963;32;20245;-72
2021/06/30 03:35:35;;;;;;;12.93;9.27;;;;;;;;;;4421026;32;20531;-73
2021/06/30 03:38:00;;;;;;;10.17;8.47;;;;;;;;;;4421705;32;20159;-72
2021/06/30 03:40:25;;;;;;;12.50;8.38;;;;;;;;;;4420331;32;20718;-73
2021/06/30 03:42:50;;;;;;;12.98;8.27;;;;;;;;;;4422425;32;20589;-72
2021/06/30 03:45:15;;;;;;;12.30;7.82;;;;;;;;;;4420743;32;20134;-72
2021/06/30 03:47:41;;;;;;;11.05;8.32;;;;;;;;;;4420885;32;20148;-72
2021/06/30 03:50:06;;;;;;;10.15;7.82;;;;;;;;;;4421309;32;20127;-72
2021/06/30 03:52:31;;;;;;;12.63;8.88;;;;;;;;;;4420767;32;20264;-72
2021/06/30 03:54:57;;;;;;;11.70;8.38;;;;;;;;;;4421350;32;20419;-72
2021/06/30 03:57:22;;;;;;;11.52;7.90;;;;;;;;;;4422237;32;20526;-72
2021/06/30 03:59:47;;;;;;;9.57;7.22;;;;;;;;;;4421527;32;20563;-72
2021/06/30 04:02:12;;;;;;;10.87;7.90;;;;;;;;;;4422053;32;20127;-72
2021/06/30 04:04:37;;;;;;;11.27;7.25;;;;;;;;;;4421844;32;20252;-72
2021/06/30 04:07:03;;;;;;;10.38;7.07;;;;;;;;;;4422263;32;20153;-72
2021/06/30 04:09:28;;;;;;;7.85;5.45;;;;;;;;;;4422211;32;20257;-71
2021/06/30 04:11:53;;;;;;;9.10;5.85;;;;;;;;;;4422770;32;20149;-72
2021/06/30 04:14:18;;;;;;;7.87;5.37;;;;;;;;;;4420787;32;20165;-72
2021/06/30 04:16:44;;;;;;;7.18;5.60;;;;;;;;;;4420623;32;20129;-72
2021/06/30 04:19:09;;;;;;;7.97;5.47;;;;;;;;;;4420849;32;20146;-72
2021/06/30 04:21:34;;;;;;;8.15;5.30;;;;;;;;;;4421098;32;20160;-71
2021/06/30 04:23:59;;;;;;;9.50;6.50;;;;;;;;;;4420362;32;20686;-72
2021/06/30 04:26:25;;;;;;;8.63;5.90;;;;;;;;;;4422342;32;20138;-72
2021/06/30 04:28:50;;;;;;;8.75;5.65;;;;;;;;;;4420433;32;20134;-73
2021/06/30 04:31:15;;;;;;;8.38;5.93;;;;;;;;;;4421100;32;20137;-72
2021/06/30 04:33:40;;;;;;;9.02;5.97;;;;;;;;;;4420725;32;20260;-72
2021/06/30 04:36:05;;;;;;;12.60;8.20;;;;;;;;;;4421917;32;20168;-72
2021/06/30 04:38:31;;;;;;;13.25;8.23;;;;;;;;;;4420462;32;20226;-72
2021/06/30 04:40:56;;;;;;;14.10;10.05;;;;;;;;;;4420259;32;20152;-72
2021/06/30 04:43:21;;;;;;;12.50;9.35;;;;;;;;;;4425671;32;20263;-73
2021/06/30 04:45:46;;;;;;;15.02;10.02;;;;;;;;;;4437209;32;20134;-72
2021/06/30 04:48:12;;;;;;;17.40;10.70;;;;;;;;;;4435771;32;20134;-71
2021/06/30 04:50:37;;;;;;;16.20;10.02;;;;;;;;;;4437288;32;20153;-71
2021/06/30 04:53:02;;;;;;;14.43;10.30;;;;;;;;;;4436730;32;20167;-71
2021/06/30 04:55:27;;;;;;;17.20;11.18;;;;;;;;;;4435457;32;20169;-71
2021/06/30 04:57:52;;;;;;;14.70;9.73;;;;;;;;;;4437008;32;20183;-71
2021/06/30 05:00:18;;;;;;;15.82;10.90;;;;;;;;;;4436216;32;20316;-72
2021/06/30 05:02:43;;;;;;;16.52;9.93;;;;;;;;;;4437096;32;20236;-72
2021/06/30 05:05:08;;;;;;;17.67;11.05;;;;;;;;;;4421695;32;20166;-72
2021/06/30 05:07:33;;;;;;;14.87;9.23;;;;;;;;;;4436886;32;20593;-71
2021/06/30 05:09:59;;;;;;;15.77;10.43;;;;;;;;;;4435942;32;20612;-71
2021/06/30 05:12:24;;;;;;;13.77;9.93;;;;;;;;;;4422788;32;20335;-72
2021/06/30 05:14:49;;;;;;;18.20;9.33;;;;;;;;;;4436732;32;20453;-72
2021/06/30 05:17:14;;;;;;;14.73;9.02;;;;;;;;;;4436488;32;20213;-72
2021/06/30 05:19:39;;;;;;;14.43;9.13;;;;;;;;;;4422887;32;20252;-72
2021/06/30 05:22:05;;;;;;;13.52;9.10;;;;;;;;;;4436178;32;20125;-72
2021/06/30 05:24:30;;;;;;;18.80;9.68;;;;;;;;;;4435148;32;20138;-72
2021/06/30 05:26:55;;;;;;;17.85;9.48;;;;;;;;;;4437624;32;20129;-71
2021/06/30 05:29:21;;;;;;;13.95;8.88;;;;;;;;;;4435039;32;20125;-72
2021/06/30 05:31:46;;;;;;;17.77;10.77;;;;;;;;;;4421184;32;20176;-72
2021/06/30 05:34:11;;;;;;;17.80;8.65;;;;;;;;;;4422246;32;20747;-72
2021/06/30 05:36:36;;;;;;;13.80;9.30;;;;;;;;;;4434602;32;20249;-72
2021/06/30 05:39:01;;;;;;;16.60;9.27;;;;;;;;;;4435067;32;20237;-73
2021/06/30 05:41:26;;;;;;;13.77;8.70;;;;;;;;;;4436166;32;20534;-73
2021/06/30 05:43:52;;;;;;;15.40;8.02;;;;;;;;;;4436185;32;20137;-72
2021/06/30 05:46:18;;;;;;;16.27;7.62;;;;;;;;;;4430509;32;20165;-73
2021/06/30 05:48:43;;;;;;;11.60;6.70;;;;;;;;;;4423941;32;20157;-73
2021/06/30 05:51:08;;;;;;;11.60;7.15;;;;;;;;;;4434363;32;20138;-74
2021/06/30 05:53:34;;;;;;;12.35;7.05;;;;;;;;;;4434941;32;20171;-73
2021/06/30 05:55:59;;;;;;;13.10;7.28;;;;;;;;;;4427042;32;20150;-73
2021/06/30 05:58:24;;;;;;;10.95;6.72;;;;;;;;;;4438577;32;20183;-73
2021/06/30 06:00:49;;;;;;;13.75;7.12;;;;;;;;;;4439003;32;20308;-73
2021/06/30 06:03:14;;;;;;;11.40;6.43;;;;;;;;;;4430075;32;20138;-73
2021/06/30 06:05:39;;;;;;;14.15;6.43;;;;;;;;;;4422913;32;20249;-73
2021/06/30 06:08:05;;;;;;;8.98;5.90;;;;;;;;;;4427928;32;20138;-73
2021/06/30 06:10:30;;;;;;;10.43;6.45;;;;;;;;;;4431199;32;20588;-73
2021/06/30 06:12:55;;;;;;;14.93;7.18;;;;;;;;;;4438207;32;20142;-74
2021/06/30 06:15:20;;;;;;;12.80;6.62;;;;;;;;;;4438900;32;20224;-73
2021/06/30 06:17:46;;;;;;;17.05;7.53;;;;;;;;;;4437825;32;20275;-74
2021/06/30 06:20:11;;;;;;;14.32;6.82;;;;;;;;;;4438019;32;20142;-73
2021/06/30 06:22:37;;;;;;;15.20;7.65;;;;;;;;;;4437308;32;20161;-73
2021/06/30 06:25:06;;;;;;;11.35;7.45;;;;;;;;;;4438409;32;20130;-72
2021/06/30 06:27:31;;;;;;;13.65;7.00;;;;;;;;;;4436136;32;20173;-73
2021/06/30 06:29:57;;;;;;;13.57;6.78;;;;;;;;;;4379738;32;20153;-73
2021/06/30 06:32:22;;;;;;;10.27;6.85;;;;;;;;;;4436653;32;20543;-74
2021/06/30 06:34:47;;;;;;;12.90;6.80;;;;;;;;;;4436776;32;20613;-75
2021/06/30 06:37:15;;;;;;;12.10;6.78;;;;;;;;;;4436598;32;20141;-75
2021/06/30 06:39:41;;;;;;;11.00;7.32;;;;;;;;;;4438402;32;20233;-74
2021/06/30 06:42:07;;;;;;;11.63;7.53;;;;;;;;;;4437469;32;20153;-75
2021/06/30 06:44:36;;;;;;;16.27;8.75;;;;;;;;;;4437291;32;20142;-75
2021/06/30 06:47:01;;;;;;;10.77;7.70;;;;;;;;;;4438125;32;20186;-75
2021/06/30 06:49:27;;;;;;;13.27;7.37;;;;;;;;;;4436214;32;20157;-75
2021/06/30 06:51:52;;;;;;;13.38;7.47;;;;;;;;;;4437271;32;20126;-75
2021/06/30 06:54:17;;;;;;;12.37;7.18;;;;;;;;;;4436718;32;20149;-76
2021/06/30 06:56:42;;;;;;;11.63;6.75;;;;;;;;;;4438587;32;20444;-74
2021/06/30 06:59:07;;;;;;;14.18;7.07;;;;;;;;;;4438901;32;20165;-75
2021/06/30 07:01:32;;;;;;;10.63;6.55;;;;;;;;;;4436787;32;20164;-75
2021/06/30 07:03:58;;;;;;;10.50;6.60;;;;;;;;;;4438025;32;20260;-75
2021/06/30 07:06:23;;;;;;;10.95;6.57;;;;;;;;;;4438589;32;20323;-73
2021/06/30 07:08:48;;;;;;;10.48;6.00;;;;;;;;;;4437685;32;20769;-74
2021/06/30 07:11:13;;;;;;;11.10;6.57;;;;;;;;;;4437319;32;20555;-74
2021/06/30 07:13:39;;;;;;;10.10;6.43;;;;;;;;;;4438186;32;20307;-74
2021/06/30 07:16:05;;;;;;;9.68;5.60;;;;;;;;;;4423538;32;20634;-74
2021/06/30 07:18:33;;;;;;;9.57;5.87;;;;;;;;;;4433059;32;20501;-75
2021/06/30 07:21:01;;;;;;;9.00;5.95;;;;;;;;;;4421246;32;20249;-76
2021/06/30 07:23:26;;;;;;;8.25;5.65;;;;;;;;;;4422687;32;20220;-75
2021/06/30 07:25:51;;;;;;;15.63;6.50;;;;;;;;;;4435238;32;20215;-75
2021/06/30 07:28:17;;;;;;;8.68;5.50;;;;;;;;;;4436863;32;20152;-75
2021/06/30 07:30:42;;;;;;;9.55;5.50;;;;;;;;;;4423267;32;20556;-75
2021/06/30 07:33:07;;;;;;;9.30;5.60;;;;;;;;;;4426265;32;20228;-75
2021/06/30 07:35:32;;;;;;;9.65;6.00;;;;;;;;;;4422439;32;20139;-75
2021/06/30 07:37:58;;;;;;;8.25;5.47;;;;;;;;;;4421276;32;20805;-75
2021/06/30 07:40:23;;;;;;;9.65;5.50;;;;;;;;;;4407944;32;20598;-74
2021/06/30 07:42:48;;;;;;;7.97;6.07;;;;;;;;;;4421227;32;20195;-74
2021/06/30 07:45:13;;;;;;;10.60;6.07;;;;;;;;;;4433280;32;20168;-74
2021/06/30 07:47:39;;;;;;;9.38;5.85;;;;;;;;;;4428996;32;20133;-75
2021/06/30 07:50:05;;;;;;;8.60;6.37;;;;;;;;;;4406259;32;20170;-73
2021/06/30 07:52:30;;;;;;;10.48;6.78;;;;;;;;;;4423682;32;20453;-75
2021/06/30 07:54:55;;;;;;;11.03;6.57;;;;;;;;;;4435495;32;20130;-74
2021/06/30 07:57:20;;;;;;;11.20;6.18;;;;;;;;;;4435401;32;20221;-75
2021/06/30 07:59:45;;;;;;;11.17;6.40;;;;;;;;;;4422102;32;20153;-74
2021/06/30 08:02:11;;;;;;;10.98;6.53;;;;;;;;;;4425824;32;20245;-73
2021/06/30 08:04:36;;;;;;;11.00;7.03;;;;;;;;;;4446125;32;20134;-74
2021/06/30 08:07:01;;;;;;;11.95;6.93;;;;;;;;;;4427756;32;20179;-74
2021/06/30 08:09:28;;;;;;;9.80;6.80;;;;;;;;;;4432241;32;20141;-74
2021/06/30 08:11:53;;;;;;;11.55;6.87;;;;;;;;;;4433923;32;20157;-74
2021/06/30 08:14:18;;;;;;;11.38;6.80;;;;;;;;;;4436564;32;20244;-74
2021/06/30 08:16:43;;;;;;;14.80;6.90;;;;;;;;;;4434705;32;20252;-74
2021/06/30 08:19:09;;;;;;;13.65;6.70;;;;;;;;;;4422503;32;20190;-72
2021/06/30 08:21:35;;;;;;;12.85;7.03;;;;;;;;;;4435242;32;20156;-75
2021/06/30 08:24:00;;;;;;;11.50;6.90;;;;;;;;;;4436494;32;20631;-76
2021/06/30 08:26:25;;;;;;;11.25;7.05;;;;;;;;;;4421010;32;20232;-75
2021/06/30 08:28:51;;;;;;;11.77;7.28;;;;;;;;;;4435771;32;20155;-75
2021/06/30 08:31:16;;;;;;;9.35;6.28;;;;;;;;;;4436485;32;20610;-74
2021/06/30 08:33:41;;;;;;;12.40;7.32;;;;;;;;;;4435336;32;20168;-74
2021/06/30 08:36:06;;;;;;;8.93;6.90;;;;;;;;;;4436122;32;20217;-74
2021/06/30 08:38:31;;;;;;;9.23;6.17;;;;;;;;;;4422487;32;20229;-74
2021/06/30 08:40:57;;;;;;;12.43;7.00;;;;;;;;;;4423823;32;20255;-74
2021/06/30 08:43:23;;;;;;;12.55;7.00;;;;;;;;;;4434987;32;20172;-74
2021/06/30 08:45:48;;;;;;;10.95;6.00;;;;;;;;;;4436202;32;20253;-75
2021/06/30 08:48:15;;;;;;;8.75;5.93;;;;;;;;;;4436468;32;20137;-75
2021/06/30 08:50:40;;;;;;;11.63;5.93;;;;;;;;;;4427290;32;20149;-75
2021/06/30 08:53:09;;;;;;;9.13;6.18;;;;;;;;;;4430234;32;20551;-74
2021/06/30 08:55:35;;;;;;;10.23;6.43;;;;;;;;;;4427031;32;20157;-75
2021/06/30 08:58:00;;;;;;;10.43;6.30;;;;;;;;;;4426113;32;20167;-75
2021/06/30 09:00:26;;;;;;;11.32;6.32;;;;;;;;;;4434951;32;20141;-74
2021/06/30 09:02:56;;;;;;;8.85;5.78;;;;;;;;;;4435454;32;20186;-73
2021/06/30 09:07:51;;;;;;;8.13;5.87;;;;;;;;;;4436177;32;20156;-72
2021/06/30 09:10:28;;;;;;;8.57;5.60;;;;;;;;;;4433812;32;20240;-74
2021/06/30 09:12:53;;;;;;;11.07;5.55;;;;;;;;;;4434168;32;20539;-74
2021/06/30 09:15:19;;;;;;;9.63;5.57;;;;;;;;;;4436714;32;20221;-75
2021/06/30 09:17:46;;;;;;;17.27;9.20;;;;;;;;;;4434078;32;20126;-75
2021/06/30 09:20:12;;;;;;;12.70;6.05;;;;;;;;;;4435188;32;20204;-74
2021/06/30 09:22:47;;;;;;;8.05;5.57;;;;;;;;;;4406905;32;20184;-75
2021/06/30 09:25:31;;;;;;;7.93;5.15;;;;;;;;;;4420910;32;20446;-75
2021/06/30 09:27:57;;;;;;;9.23;5.50;;;;;;;;;;4422326;32;20492;-74
2021/06/30 09:30:22;;;;;;;8.20;5.07;;;;;;;;;;4434397;32;20646;-74
2021/06/30 09:33:02;;;;;;;8.98;5.40;;;;;;;;;;4423452;32;20314;-75
2021/06/30 09:35:29;;;;;;;8.32;5.68;;;;;;;;;;4437523;32;20141;-75
2021/06/30 09:37:54;;;;;;;7.12;5.10;;;;;;;;;;4422902;32;20526;-76
2021/06/30 09:40:19;;;;;;;7.05;5.20;;;;;;;;;;4437356;32;20142;-74
2021/06/30 09:42:45;;;;;;;8.57;5.07;;;;;;;;;;4436301;32;20550;-74
2021/06/30 09:45:18;;;;;;;9.98;5.90;;;;;;;;;;4437206;32;20258;-74
2021/06/30 09:47:47;;;;;;;14.82;7.97;;;;;;;;;;4436426;32;20156;-74
2021/06/30 09:50:13;;;;;;;8.00;5.87;;;;;;;;;;4436297;32;20138;-74
2021/06/30 09:52:40;;;;;;;7.78;5.40;;;;;;;;;;4436801;32;20161;-75
2021/06/30 09:55:21;;;;;;;9.85;5.62;;;;;;;;;;4438388;32;20202;-75
2021/06/30 09:57:46;;;;;;;10.32;6.22;;;;;;;;;;4437626;32;20228;-74
2021/06/30 10:00:12;;;;;;;8.60;5.45;;;;;;;;;;4424380;32;20165;-75
2021/06/30 10:02:39;;;;;;;7.28;5.35;;;;;;;;;;4424397;32;20161;-74
2021/06/30 10:05:04;;;;;;;7.22;5.22;;;;;;;;;;4437052;32;20141;-74
2021/06/30 10:07:29;;;;;;;7.60;5.70;;;;;;;;;;4438253;32;20228;-75
2021/06/30 10:09:54;;;;;;;7.05;5.55;;;;;;;;;;4438135;32;20148;-75
2021/06/30 10:12:24;;;;;;;7.82;5.50;;;;;;;;;;4436817;32;20214;-74
2021/06/30 10:14:50;;;;;;;6.37;4.80;;;;;;;;;;4438426;32;20173;-74
2021/06/30 10:17:16;;;;;;;8.90;5.57;;;;;;;;;;4438501;32;20142;-75
2021/06/30 10:19:47;;;;;;;6.00;5.20;;;;;;;;;;4437368;32;20183;-74
2021/06/30 10:22:12;;;;;;;5.82;4.20;;;;;;;;;;4437558;32;20121;-75
2021/06/30 10:24:39;;;;;;;4.32;3.85;;;;;;;;;;4439742;32;20159;-75
2021/06/30 10:27:06;;;;;;;9.60;3.97;;;;;;;;;;4441048;32;20145;-76
2021/06/30 10:29:32;;;;;;;4.57;3.75;;;;;;;;;;4438770;32;20126;-74
2021/06/30 10:32:02;;;;;;;3.97;3.37;;;;;;;;;;4438206;32;20141;-75
2021/06/30 10:34:33;;;;;;;5.78;3.80;;;;;;;;;;4439530;32;20133;-74
2021/06/30 10:36:59;;;;;;;4.95;3.78;;;;;;;;;;4437225;32;20165;-76
2021/06/30 10:39:33;;;;;;;4.68;3.10;;;;;;;;;;4422620;32;20157;-74
2021/06/30 10:41:58;;;;;;;3.78;3.03;;;;;;;;;;4436701;32;20746;-75
2021/06/30 10:44:24;;;;;;;7.95;3.75;;;;;;;;;;4436649;32;20127;-76
2021/06/30 10:46:50;;;;;;;3.70;3.05;;;;;;;;;;4438313;32;20287;-76
2021/06/30 10:49:20;;;;;;;5.32;3.78;;;;;;;;;;4436919;32;20431;-76
2021/06/30 10:51:47;;;;;;;4.32;3.20;;;;;;;;;;4436534;32;20160;-74
2021/06/30 10:54:31;;;;;;;5.32;3.25;;;;;;;;;;4436748;32;20137;-75
2021/06/30 10:57:25;;;;;;;3.33;2.90;;;;;;;;;;4436429;32;20153;-75
2021/06/30 11:00:16;;;;;;;4.57;3.37;;;;;;;;;;4420272;32;20267;-78
2021/06/30 11:02:41;;;;;;;6.18;3.95;;;;;;;;;;4437128;32;20134;-76
2021/06/30 11:05:12;;;;;;;4.60;3.50;;;;;;;;;;4436663;32;20126;-76
2021/06/30 11:07:38;;;;;;;6.03;4.40;;;;;;;;;;4436451;32;20474;-74
2021/06/30 11:10:15;;;;;;;5.93;4.15;;;;;;;;;;4438856;32;20156;-75
2021/06/30 11:12:57;;;;;;;5.03;3.90;;;;;;;;;;4422690;32;20224;-75
2021/06/30 11:15:37;;;;;;;6.25;3.85;;;;;;;;;;4437046;32;20550;-74
2021/06/30 11:18:04;;;;;;;6.20;4.60;;;;;;;;;;4436983;32;20534;-75
2021/06/30 11:20:45;;;;;;;3.75;3.35;;;;;;;;;;4438122;32;20212;-74
2021/06/30 11:23:20;;;;;;;6.50;3.42;;;;;;;;;;4437769;32;20247;-75
2021/06/30 11:25:45;;;;;;;6.20;3.65;;;;;;;;;;4436465;32;20202;-75
2021/06/30 11:28:30;;;;;;;3.92;3.15;;;;;;;;;;4435983;32;20141;-75
2021/06/30 11:30:55;;;;;;;6.43;2.83;;;;;;;;;;4437981;32;20160;-75
2021/06/30 11:33:21;;;;;;;4.90;3.00;;;;;;;;;;4437466;32;20268;-75
2021/06/30 11:35:46;;;;;;;5.45;3.58;;;;;;;;;;4422006;32;20170;-75
2021/06/30 11:38:19;;;;;;;5.57;3.45;;;;;;;;;;4437709;32;20597;-75
2021/06/30 11:41:00;;;;;;;6.62;3.70;;;;;;;;;;4436410;32;20565;-75
2021/06/30 11:43:28;;;;;;;5.68;3.90;;;;;;;;;;4437503;32;20129;-75
2021/06/30 11:46:01;;;;;;;5.30;3.37;;;;;;;;;;4435677;32;20138;-75
2021/06/30 11:48:28;;;;;;;6.15;2.67;;;;;;;;;;4437278;32;20224;-76
2021/06/30 11:50:59;;;;;;;3.10;1.90;;;;;;;;;;4435313;32;20511;-76
2021/06/30 11:53:35;;;;;;;2.62;1.90;;;;;;;;;;4438064;32;20145;-76
2021/06/30 11:56:00;;;;;;;2.60;1.80;;;;;;;;;;4420508;32;20594;-75
2021/06/30 11:58:39;;;;;;;4.32;2.55;;;;;;;;;;4420945;32;20187;-76
2021/06/30 12:01:14;;;;;;;6.05;2.90;;;;;;;;;;4420583;32;20626;-74
2021/06/30 12:03:39;;;;;;;5.75;3.05;;;;;;;;;;4436482;32;20183;-74
2021/06/30 12:06:04;;;;;;;5.12;3.28;;;;;;;;;;4434478;32;20153;-75
2021/06/30 12:08:30;;;;;;;6.97;3.75;;;;;;;;;;4437103;32;20527;-75
2021/06/30 12:10:55;;;;;;;9.20;4.18;;;;;;;;;;4422767;32;20178;-76
2021/06/30 12:13:20;;;;;;;4.83;4.20;;;;;;;;;;4435962;32;20232;-76
2021/06/30 12:15:46;;;;;;;7.57;4.17;;;;;;;;;;4436063;32;20241;-76
2021/06/30 12:18:12;;;;;;;7.90;4.30;;;;;;;;;;4437162;32;20240;-75
2021/06/30 12:20:37;;;;;;;9.18;4.87;;;;;;;;;;4435242;32;20142;-75
2021/06/30 12:23:03;;;;;;;6.50;4.85;;;;;;;;;;4435788;32;20172;-75
2021/06/30 12:25:30;;;;;;;7.15;5.15;;;;;;;;;;4435446;32;20194;-76
2021/06/30 12:27:56;;;;;;;9.10;4.68;;;;;;;;;;4436333;32;20137;-75
2021/06/30 12:30:21;;;;;;;8.00;4.90;;;;;;;;;;4420610;32;20291;-76
2021/06/30 12:32:48;;;;;;;10.20;5.05;;;;;;;;;;4436058;32;20213;-76
2021/06/30 12:35:15;;;;;;;8.82;5.40;;;;;;;;;;4435625;32;20154;-75
2021/06/30 12:37:41;;;;;;;8.55;5.70;;;;;;;;;;4436133;32;20160;-76
2021/06/30 12:40:07;;;;;;;10.05;5.60;;;;;;;;;;4435957;32;20628;-77
2021/06/30 12:42:43;;;;;;;6.93;5.20;;;;;;;;;;4436351;32;20166;-76
2021/06/30 12:45:11;;;;;;;7.22;5.05;;;;;;;;;;4423261;32;20223;-76
2021/06/30 12:47:36;;;;;;;8.07;4.80;;;;;;;;;;4437164;32;20173;-76
2021/06/30 12:50:04;;;;;;;6.68;5.07;;;;;;;;;;4435701;32;20201;-76
2021/06/30 12:52:30;;;;;;;7.57;5.00;;;;;;;;;;4421374;32;20647;-75
2021/06/30 12:55:01;;;;;;;8.98;5.30;;;;;;;;;;4435308;32;20484;-76
2021/06/30 12:57:27;;;;;;;8.50;4.85;;;;;;;;;;4436017;32;20558;-76
2021/06/30 13:00:07;;;;;;;5.55;4.32;;;;;;;;;;4435853;32;20164;-76
2021/06/30 13:02:32;;;;;;;3.25;2.85;;;;;;;;;;4421408;32;20644;-75
2021/06/30 13:04:58;;;;;;;4.85;3.10;;;;;;;;;;4421286;32;20164;-75
2021/06/30 13:07:38;;;;;;;4.90;3.40;;;;;;;;;;4435095;32;20161;-75
2021/06/30 13:10:14;;;;;;;4.20;3.37;;;;;;;;;;4436968;32;20305;-75
2021/06/30 13:12:39;;;;;;;5.97;4.05;;;;;;;;;;4435330;32;20211;-75
2021/06/30 13:15:04;;;;;;;5.10;4.10;;;;;;;;;;4423458;32;20176;-74
2021/06/30 13:17:30;;;;;;;7.22;4.07;;;;;;;;;;4435560;32;20138;-74
2021/06/30 13:19:55;;;;;;;7.77;4.43;;;;;;;;;;4435688;32;20149;-76
2021/06/30 13:22:33;;;;;;;7.15;4.07;;;;;;;;;;4435445;32;20353;-76
2021/06/30 13:25:10;;;;;;;8.13;4.65;;;;;;;;;;4421898;32;20252;-76
2021/06/30 13:27:55;;;;;;;7.07;4.40;;;;;;;;;;4436925;32;20168;-76
2021/06/30 13:35:45;;;;;;;6.68;4.32;;;;;;;;;;4436128;32;20237;-75
2021/06/30 13:38:19;;;;;;;8.40;4.30;;;;;;;;;;4420793;32;20177;-76
2021/06/30 13:40:46;;;;;;;7.28;4.70;;;;;;;;;;4434872;32;20156;-75
2021/06/30 13:43:14;;;;;;;6.85;4.37;;;;;;;;;;4436102;32;20476;-75
2021/06/30 13:45:41;;;;;;;9.32;4.97;;;;;;;;;;4420523;32;20192;-75
2021/06/30 13:48:08;;;;;;;8.38;5.18;;;;;;;;;;4420562;32;20161;-76
2021/06/30 13:50:34;;;;;;;7.68;5.10;;;;;;;;;;4435212;32;20141;-75
2021/06/30 13:52:59;;;;;;;7.35;4.93;;;;;;;;;;4435113;32;20204;-76
2021/06/30 13:55:25;;;;;;;8.73;5.50;;;;;;;;;;4436464;32;20150;-75
2021/06/30 13:57:51;;;;;;;10.70;5.50;;;;;;;;;;4436041;32;20563;-76
2021/06/30 14:00:16;;;;;;;9.85;5.28;;;;;;;;;;4436008;32;20205;-76
2021/06/30 14:02:41;;;;;;;7.97;5.72;;;;;;;;;;4434858;32;20538;-76
2021/06/30 14:05:06;;;;;;;9.15;5.47;;;;;;;;;;4420820;32;20165;-76
2021/06/30 14:07:32;;;;;;;13.35;6.18;;;;;;;;;;4434627;32;20336;-76
2021/06/30 14:09:58;;;;;;;8.65;5.45;;;;;;;;;;4436207;32;20153;-76
2021/06/30 14:12:23;;;;;;;11.98;6.80;;;;;;;;;;4435107;32;20169;-77
2021/06/30 14:14:48;;;;;;;8.68;5.40;;;;;;;;;;4435172;32;20161;-76
2021/06/30 14:17:13;;;;;;;9.20;5.50;;;;;;;;;;4421711;32;20482;-76
2021/06/30 14:19:38;;;;;;;8.52;5.40;;;;;;;;;;4437636;32;20268;-77
2021/06/30 14:22:04;;;;;;;9.60;5.55;;;;;;;;;;4437337;32;20419;-76
2021/06/30 14:24:29;;;;;;;8.97;5.17;;;;;;;;;;4438929;32;20164;-75
2021/06/30 14:26:54;;;;;;;7.80;5.27;;;;;;;;;;4423377;32;20295;-76
2021/06/30 14:29:19;;;;;;;9.85;5.43;;;;;;;;;;4432669;32;20244;-76
2021/06/30 14:31:45;;;;;;;11.13;5.40;;;;;;;;;;4409520;32;20530;-74
2021/06/30 14:34:10;;;;;;;9.02;5.97;;;;;;;;;;4421861;32;20264;-74
2021/06/30 14:36:35;;;;;;;12.18;5.60;;;;;;;;;;4422607;32;20154;-74
2021/06/30 14:39:01;;;;;;;5.83;4.70;;;;;;;;;;4421433;32;20572;-74
2021/06/30 14:41:26;;;;;;;11.38;5.68;;;;;;;;;;4408421;32;20269;-75